Time;durP1;ratioP1;P1;durP2;ratioP2;P2;SDS_P1;SDS_P2;PMS_P1;PMS_P2;Temp;Humidity;BMP_temperature;BMP_pressure;BME280_temperature;BME280_humidity;BME280_pressure;Samples;Min_cycle;Max_cycle;Signal;HPM_P1;HPM_P2
2023/12/09 00:01:10;;;;;;;62.17;12.63;;;5.40;99.90;;;;;;4967330;28;20024;-67
2023/12/09 00:03:36;;;;;;;36.22;12.25;;;5.40;99.90;;;;;;4952439;28;20035;-66
2023/12/09 00:06:01;;;;;;;36.67;14.15;;;5.40;99.90;;;;;;4970496;28;20108;-65
2023/12/09 00:08:27;;;;;;;31.92;12.50;;;5.40;99.90;;;;;;4970661;28;20043;-67
2023/12/09 00:10:52;;;;;;;34.55;14.82;;;5.40;99.90;;;;;;4969396;28;20134;-68
2023/12/09 00:13:18;;;;;;;38.33;14.82;;;5.40;99.90;;;;;;4970823;28;20031;-66
2023/12/09 00:15:44;;;;;;;35.30;14.23;;;5.40;99.90;;;;;;4970222;28;20043;-66
2023/12/09 00:18:09;;;;;;;39.33;14.73;;;5.40;99.90;;;;;;4970211;28;20062;-66
2023/12/09 00:20:35;;;;;;;39.50;14.82;;;5.40;99.90;;;;;;4970625;28;20511;-66
2023/12/09 00:23:00;;;;;;;44.13;15.40;;;5.30;99.90;;;;;;4969299;28;20038;-66
2023/12/09 00:25:26;;;;;;;50.78;15.18;;;5.30;99.90;;;;;;4952481;28;20158;-67
2023/12/09 00:27:52;;;;;;;43.17;17.05;;;5.30;99.90;;;;;;4960564;28;20122;-69
2023/12/09 00:30:17;;;;;;;49.83;17.23;;;5.40;99.90;;;;;;4955624;28;20035;-66
2023/12/09 00:32:44;;;;;;;44.35;16.70;;;5.40;99.90;;;;;;4957969;28;20147;-66
2023/12/09 00:35:10;;;;;;;51.42;17.30;;;5.40;99.90;;;;;;4955763;28;20051;-65
2023/12/09 00:37:36;;;;;;;51.03;18.05;;;5.40;99.90;;;;;;4952264;28;20038;-66
2023/12/09 00:40:02;;;;;;;47.33;16.98;;;5.40;99.90;;;;;;4969745;28;20039;-68
2023/12/09 00:42:28;;;;;;;55.53;18.25;;;5.40;99.90;;;;;;4958735;28;20027;-66
2023/12/09 00:44:53;;;;;;;51.83;17.65;;;5.50;99.90;;;;;;4960056;28;20038;-68
2023/12/09 00:47:19;;;;;;;53.13;18.08;;;5.40;99.90;;;;;;4956361;28;20203;-66
2023/12/09 00:49:44;;;;;;;55.60;18.05;;;5.40;99.90;;;;;;4955037;28;20113;-66
2023/12/09 00:52:11;;;;;;;52.55;17.75;;;5.40;99.90;;;;;;4959926;28;20031;-66
2023/12/09 00:54:37;;;;;;;44.20;16.33;;;5.40;99.90;;;;;;4950528;28;20039;-65
2023/12/09 00:57:03;;;;;;;44.92;17.30;;;5.40;99.90;;;;;;4950479;28;20073;-67
2023/12/09 00:59:28;;;;;;;48.80;17.08;;;5.40;99.90;;;;;;4952376;28;20023;-66
2023/12/09 01:01:54;;;;;;;52.47;17.17;;;5.40;99.90;;;;;;4949871;28;20114;-68
2023/12/09 01:04:19;;;;;;;59.05;16.77;;;5.40;99.90;;;;;;4950406;28;20037;-66
2023/12/09 01:06:45;;;;;;;54.83;17.15;;;5.40;99.90;;;;;;4951053;28;20043;-66
2023/12/09 01:09:11;;;;;;;50.08;17.42;;;5.40;99.90;;;;;;4958803;28;20535;-67
2023/12/09 01:11:36;;;;;;;53.05;17.40;;;5.40;99.90;;;;;;4950748;28;20133;-66
2023/12/09 01:14:02;;;;;;;53.70;17.17;;;5.40;99.90;;;;;;4959664;28;20113;-66
2023/12/09 01:16:27;;;;;;;45.80;16.65;;;5.40;99.90;;;;;;4964606;28;20100;-66
2023/12/09 01:18:53;;;;;;;51.13;16.63;;;5.40;99.90;;;;;;4950276;28;20774;-68
2023/12/09 01:21:19;;;;;;;58.00;15.88;;;5.40;99.90;;;;;;4948966;28;20086;-67
2023/12/09 01:23:45;;;;;;;41.25;14.50;;;5.50;99.90;;;;;;4952098;28;20484;-65
2023/12/09 01:26:10;;;;;;;43.10;15.15;;;5.50;99.90;;;;;;4957440;28;20050;-66
2023/12/09 01:28:36;;;;;;;45.10;16.38;;;5.50;99.90;;;;;;4968497;28;20054;-67
2023/12/09 01:31:01;;;;;;;42.90;15.32;;;5.50;99.90;;;;;;4968370;28;20090;-66
2023/12/09 01:33:27;;;;;;;40.75;15.23;;;5.50;99.90;;;;;;4968908;28;20037;-65
2023/12/09 01:35:53;;;;;;;42.13;15.13;;;5.40;99.90;;;;;;4968787;28;20044;-68
2023/12/09 01:38:18;;;;;;;47.40;15.13;;;5.40;99.90;;;;;;4969254;28;20034;-66
2023/12/09 01:40:51;;;;;;;40.47;15.77;;;5.40;99.90;;;;;;4969257;28;20035;-66
2023/12/09 01:43:16;;;;;;;43.55;16.00;;;5.40;99.90;;;;;;4968502;28;20023;-65
2023/12/09 01:45:42;;;;;;;49.55;16.38;;;5.40;99.90;;;;;;4968798;28;20121;-68
2023/12/09 01:48:08;;;;;;;44.00;17.40;;;5.40;99.90;;;;;;4968196;28;20081;-68
2023/12/09 01:50:34;;;;;;;50.30;17.45;;;5.40;99.90;;;;;;4968206;28;20054;-66
2023/12/09 01:53:00;;;;;;;52.35;17.52;;;5.40;99.90;;;;;;4968862;28;20034;-67
2023/12/09 01:55:26;;;;;;;48.45;17.23;;;5.40;99.90;;;;;;4968672;28;20118;-66
2023/12/09 01:57:52;;;;;;;51.33;17.83;;;5.40;99.90;;;;;;4969088;28;20074;-67
2023/12/09 02:00:19;;;;;;;60.13;17.23;;;5.40;99.90;;;;;;4968218;28;20077;-66
2023/12/09 02:02:45;;;;;;;750.20;33.95;;;5.40;99.90;;;;;;4969171;28;20035;-66
2023/12/09 02:05:11;;;;;;;102.82;18.10;;;5.40;99.90;;;;;;4967846;28;20026;-65
2023/12/09 02:07:37;;;;;;;50.92;17.63;;;5.30;99.90;;;;;;4969144;28;20057;-65
2023/12/09 02:10:03;;;;;;;44.70;16.73;;;5.30;99.90;;;;;;4971922;28;20039;-65
2023/12/09 02:12:57;;;;;;;44.70;17.45;;;5.30;99.90;;;;;;4967432;28;20031;-65
2023/12/09 02:15:51;;;;;;;46.20;16.55;;;5.40;99.90;;;;;;4969080;28;20039;-66
2023/12/09 02:18:17;;;;;;;51.17;17.98;;;5.40;99.90;;;;;;4967253;28;20118;-65
2023/12/09 02:20:42;;;;;;;59.47;16.77;;;5.40;99.90;;;;;;4969148;28;20440;-65
2023/12/09 02:23:12;;;;;;;47.60;18.13;;;5.40;99.90;;;;;;4967869;28;20027;-66
2023/12/09 02:25:39;;;;;;;49.60;16.75;;;5.50;99.90;;;;;;4968671;28;20575;-65
2023/12/09 02:28:18;;;;;;;43.55;16.90;;;5.50;99.90;;;;;;4968336;28;20404;-65
2023/12/09 02:31:14;;;;;;;45.67;16.30;;;5.50;99.90;;;;;;4955592;28;20034;-65
2023/12/09 02:33:43;;;;;;;44.45;16.40;;;5.50;99.90;;;;;;4955148;28;20046;-66
2023/12/09 02:36:12;;;;;;;52.80;17.15;;;5.50;99.90;;;;;;4952845;28;20038;-66
2023/12/09 02:38:39;;;;;;;47.75;17.40;;;5.50;99.90;;;;;;4954277;28;20089;-67
2023/12/09 02:41:09;;;;;;;55.03;17.88;;;5.50;99.90;;;;;;4968082;28;20046;-65
2023/12/09 02:43:35;;;;;;;48.28;17.20;;;5.40;99.90;;;;;;4967551;28;20503;-65
2023/12/09 02:46:01;;;;;;;42.92;16.45;;;5.40;99.90;;;;;;4971794;28;20022;-68
2023/12/09 02:48:26;;;;;;;46.90;17.35;;;5.40;99.90;;;;;;4962299;28;20410;-65
2023/12/09 02:50:52;;;;;;;330.08;23.35;;;5.40;99.90;;;;;;4969908;28;20472;-65
2023/12/09 02:53:18;;;;;;;125.00;16.67;;;5.30;99.90;;;;;;4966783;28;20047;-66
2023/12/09 02:55:43;;;;;;;216.63;17.38;;;5.40;99.90;;;;;;4952726;28;20060;-66
2023/12/09 02:58:09;;;;;;;651.55;25.17;;;5.40;99.90;;;;;;4953409;28;20110;-65
2023/12/09 03:00:34;;;;;;;754.55;27.63;;;5.30;99.90;;;;;;4952920;28;20218;-66
2023/12/09 03:03:00;;;;;;;832.72;34.00;;;5.30;99.90;;;;;;4954189;28;20391;-68
2023/12/09 03:05:26;;;;;;;274.83;15.98;;;5.20;99.90;;;;;;4969668;28;20389;-65
2023/12/09 03:07:51;;;;;;;259.98;15.77;;;5.20;99.90;;;;;;4955360;28;20066;-65
2023/12/09 03:10:17;;;;;;;350.92;16.70;;;5.20;99.90;;;;;;4964874;28;20035;-66
2023/12/09 03:12:43;;;;;;;90.90;13.48;;;5.20;99.90;;;;;;4952949;28;20038;-66
2023/12/09 03:15:09;;;;;;;132.43;14.35;;;5.30;99.90;;;;;;4951422;29;20035;-66
2023/12/09 03:17:35;;;;;;;78.38;13.80;;;5.30;99.90;;;;;;4953266;28;20128;-66
2023/12/09 03:20:02;;;;;;;38.17;14.68;;;5.30;99.90;;;;;;4952510;28;20035;-67
2023/12/09 03:22:28;;;;;;;33.63;13.85;;;5.30;99.90;;;;;;4952700;29;20027;-66
2023/12/09 03:24:53;;;;;;;43.17;17.77;;;5.30;99.90;;;;;;4952714;29;20114;-66
2023/12/09 03:27:19;;;;;;;40.05;15.57;;;5.30;99.90;;;;;;4966619;28;20118;-66
2023/12/09 03:29:44;;;;;;;35.17;14.98;;;5.30;99.90;;;;;;4956494;28;20035;-66
2023/12/09 03:32:10;;;;;;;39.95;15.63;;;5.40;99.90;;;;;;4970981;28;20089;-65
2023/12/09 03:34:36;;;;;;;39.63;14.45;;;5.40;99.90;;;;;;4971719;28;20118;-65
2023/12/09 03:37:01;;;;;;;36.78;14.73;;;5.40;99.90;;;;;;4969390;28;20391;-68
2023/12/09 03:39:27;;;;;;;34.33;13.80;;;5.30;99.90;;;;;;4969396;28;20034;-66
2023/12/09 03:41:52;;;;;;;41.63;15.93;;;5.30;99.90;;;;;;4971712;28;20062;-66
2023/12/09 03:44:18;;;;;;;88.45;15.73;;;5.30;99.90;;;;;;4970049;28;20612;-65
2023/12/09 03:46:44;;;;;;;131.75;17.20;;;5.30;99.90;;;;;;4965355;28;20047;-66
2023/12/09 03:49:09;;;;;;;66.47;15.88;;;5.30;99.90;;;;;;4953282;28;20026;-65
2023/12/09 03:51:35;;;;;;;58.55;15.50;;;5.20;99.90;;;;;;4971519;28;20034;-65
2023/12/09 03:54:00;;;;;;;102.45;17.00;;;5.20;99.90;;;;;;4970814;28;20030;-66
2023/12/09 03:56:26;;;;;;;47.50;15.10;;;5.20;99.90;;;;;;4970350;28;20039;-65
2023/12/09 03:58:53;;;;;;;39.67;15.02;;;5.20;99.90;;;;;;4970651;28;20043;-64
2023/12/09 04:01:18;;;;;;;46.05;15.65;;;5.20;99.90;;;;;;4970236;28;20399;-65
2023/12/09 04:03:44;;;;;;;40.88;15.95;;;5.30;99.90;;;;;;4970799;28;20035;-65
2023/12/09 04:06:10;;;;;;;38.47;14.77;;;5.20;99.90;;;;;;4970272;28;20027;-65
2023/12/09 04:08:35;;;;;;;36.97;14.65;;;5.20;99.90;;;;;;4970132;28;20422;-65
2023/12/09 04:11:01;;;;;;;37.60;15.20;;;5.30;99.90;;;;;;4970390;28;20031;-65
2023/12/09 04:13:27;;;;;;;42.15;14.70;;;5.20;99.90;;;;;;4970055;28;20476;-65
2023/12/09 04:15:53;;;;;;;39.33;16.08;;;5.20;99.90;;;;;;4969990;28;20114;-64
2023/12/09 04:18:18;;;;;;;45.45;16.35;;;5.20;99.90;;;;;;4969267;28;20155;-64
2023/12/09 04:20:44;;;;;;;37.95;15.70;;;5.20;99.90;;;;;;4970729;28;20038;-66
2023/12/09 04:23:09;;;;;;;41.85;15.93;;;5.30;99.90;;;;;;4970013;28;20443;-65
2023/12/09 04:25:35;;;;;;;37.08;14.60;;;5.30;99.90;;;;;;4978360;28;20058;-65
2023/12/09 04:28:01;;;;;;;38.17;15.05;;;5.30;99.90;;;;;;4963969;28;20065;-65
2023/12/09 04:30:27;;;;;;;39.28;16.40;;;5.30;99.90;;;;;;4969649;28;20031;-66
2023/12/09 04:32:53;;;;;;;38.38;16.10;;;5.20;99.90;;;;;;4970530;28;20038;-64
2023/12/09 04:35:18;;;;;;;37.28;15.05;;;5.20;99.90;;;;;;4969591;28;20030;-64
2023/12/09 04:37:44;;;;;;;36.67;14.63;;;5.20;99.90;;;;;;4959245;28;20042;-66
2023/12/09 04:40:10;;;;;;;42.80;15.52;;;5.10;99.90;;;;;;4969385;28;20062;-67
2023/12/09 04:42:37;;;;;;;42.33;16.75;;;5.10;99.90;;;;;;4970333;28;20042;-68
2023/12/09 04:45:03;;;;;;;40.67;16.00;;;5.10;99.90;;;;;;4970052;28;20117;-67
2023/12/09 04:47:29;;;;;;;42.35;15.60;;;5.00;99.90;;;;;;4969060;28;20805;-68
2023/12/09 04:49:54;;;;;;;38.05;15.63;;;5.00;99.90;;;;;;4970342;28;20479;-67
2023/12/09 04:52:20;;;;;;;153.02;18.13;;;5.00;99.90;;;;;;4969599;28;20041;-69
2023/12/09 04:54:45;;;;;;;157.70;15.77;;;5.00;99.90;;;;;;4969889;28;20035;-69
2023/12/09 04:57:11;;;;;;;37.63;14.75;;;4.90;99.90;;;;;;4967910;28;20046;-67
2023/12/09 04:59:37;;;;;;;35.75;14.68;;;5.00;99.90;;;;;;4969345;28;20499;-67
2023/12/09 05:02:03;;;;;;;34.63;14.07;;;5.00;99.90;;;;;;4970237;28;20042;-68
2023/12/09 05:04:29;;;;;;;36.90;15.13;;;4.90;99.90;;;;;;4969076;28;20093;-67
2023/12/09 05:06:54;;;;;;;40.20;13.25;;;4.90;99.90;;;;;;4969786;28;20031;-67
2023/12/09 05:09:22;;;;;;;120.05;12.65;;;4.80;99.90;;;;;;4968893;28;20070;-67
2023/12/09 05:11:48;;;;;;;142.35;13.48;;;4.80;99.90;;;;;;4970027;28;20656;-67
2023/12/09 05:14:13;;;;;;;287.35;15.00;;;4.70;99.90;;;;;;4969109;28;20045;-69
2023/12/09 05:16:39;;;;;;;212.23;14.48;;;4.70;99.90;;;;;;4962401;28;20070;-67
2023/12/09 05:19:06;;;;;;;36.28;14.02;;;4.70;99.90;;;;;;4969369;28;20038;-67
2023/12/09 05:21:32;;;;;;;43.33;13.73;;;4.60;99.90;;;;;;4969304;28;20035;-66
2023/12/09 05:23:57;;;;;;;47.03;12.80;;;4.60;99.90;;;;;;4969323;28;20593;-67
2023/12/09 05:26:25;;;;;;;75.65;13.98;;;4.50;99.90;;;;;;4977649;28;20050;-66
2023/12/09 05:28:51;;;;;;;242.27;18.70;;;4.50;99.90;;;;;;4960614;28;20047;-67
2023/12/09 05:31:16;;;;;;;72.00;13.38;;;4.50;99.90;;;;;;4932883;28;20396;-68
2023/12/09 05:33:42;;;;;;;190.18;14.95;;;4.50;99.90;;;;;;4959904;28;20034;-67
2023/12/09 05:36:08;;;;;;;73.57;14.07;;;4.50;99.90;;;;;;4950412;28;20034;-69
2023/12/09 05:38:34;;;;;;;30.55;11.57;;;4.50;99.90;;;;;;4968043;28;20046;-67
2023/12/09 05:41:00;;;;;;;25.27;10.35;;;4.40;99.90;;;;;;4969551;28;20030;-67
2023/12/09 05:43:25;;;;;;;48.50;10.60;;;4.40;99.90;;;;;;4968981;28;20050;-67
2023/12/09 05:45:51;;;;;;;47.88;10.00;;;4.40;99.90;;;;;;4968908;28;20478;-67
2023/12/09 05:48:17;;;;;;;25.73;11.90;;;4.30;99.90;;;;;;4972346;28;20051;-66
2023/12/09 05:50:43;;;;;;;137.18;13.65;;;4.30;99.90;;;;;;4969458;28;20109;-66
2023/12/09 05:53:09;;;;;;;77.95;12.55;;;4.20;99.90;;;;;;4969123;28;20038;-69
2023/12/09 05:55:35;;;;;;;24.95;11.48;;;4.30;99.90;;;;;;4968722;28;20038;-67
2023/12/09 05:58:01;;;;;;;42.00;12.77;;;4.20;99.90;;;;;;4969047;28;20575;-66
2023/12/09 06:00:28;;;;;;;116.82;13.48;;;4.20;99.90;;;;;;4956596;28;20038;-65
2023/12/09 06:02:54;;;;;;;42.63;11.60;;;4.10;99.90;;;;;;4969292;28;20448;-65
2023/12/09 06:05:20;;;;;;;70.70;11.70;;;4.10;99.90;;;;;;4968550;28;20803;-66
2023/12/09 06:07:45;;;;;;;36.53;11.20;;;4.10;99.90;;;;;;4969710;28;20499;-64
2023/12/09 06:10:11;;;;;;;24.73;11.35;;;4.10;99.90;;;;;;4972059;28;20035;-67
2023/12/09 06:12:37;;;;;;;58.95;12.02;;;4.10;99.90;;;;;;4971903;28;20472;-64
2023/12/09 06:15:03;;;;;;;30.98;12.13;;;4.10;99.90;;;;;;4972073;28;20027;-67
2023/12/09 06:17:29;;;;;;;41.75;11.80;;;4.10;99.90;;;;;;4960611;28;20042;-66
2023/12/09 06:19:54;;;;;;;109.22;14.07;;;4.10;99.90;;;;;;4955013;28;20023;-65
2023/12/09 06:22:20;;;;;;;52.50;11.93;;;4.10;99.90;;;;;;4970508;28;20031;-66
2023/12/09 06:24:46;;;;;;;61.75;12.25;;;4.10;99.90;;;;;;4986609;28;20037;-65
2023/12/09 06:27:12;;;;;;;33.15;11.40;;;4.00;99.90;;;;;;4987360;28;20113;-67
2023/12/09 06:29:39;;;;;;;36.03;12.32;;;4.00;99.90;;;;;;4984998;28;20076;-66
2023/12/09 06:32:05;;;;;;;32.55;11.35;;;4.00;99.90;;;;;;4974869;28;20101;-66
2023/12/09 06:34:30;;;;;;;26.80;11.40;;;4.00;99.90;;;;;;4971311;28;20093;-64
2023/12/09 06:36:56;;;;;;;51.45;10.88;;;3.90;99.90;;;;;;4982401;28;20030;-66
2023/12/09 06:39:22;;;;;;;27.35;11.00;;;4.00;99.90;;;;;;4981930;28;20109;-64
2023/12/09 06:41:48;;;;;;;23.73;10.75;;;4.00;99.90;;;;;;4973676;28;20035;-64
2023/12/09 06:44:14;;;;;;;37.08;11.30;;;4.00;99.90;;;;;;4980486;28;20121;-67
2023/12/09 06:46:40;;;;;;;32.53;12.05;;;3.90;99.90;;;;;;4983307;28;20031;-64
2023/12/09 06:49:06;;;;;;;29.77;11.68;;;4.00;99.90;;;;;;4971349;28;20057;-64
2023/12/09 06:51:32;;;;;;;42.33;12.40;;;3.90;99.90;;;;;;4970809;28;20648;-63
2023/12/09 06:53:57;;;;;;;37.53;11.93;;;4.00;99.90;;;;;;4972331;28;20038;-64
2023/12/09 06:56:23;;;;;;;31.00;11.05;;;4.00;99.90;;;;;;4960415;28;20113;-63
2023/12/09 06:58:49;;;;;;;25.65;10.70;;;4.00;99.90;;;;;;4972602;28;20526;-63
2023/12/09 07:01:23;;;;;;;39.20;12.15;;;3.90;99.90;;;;;;4986339;28;20437;-65
2023/12/09 07:03:49;;;;;;;27.70;10.98;;;3.90;99.90;;;;;;4971530;28;20058;-63
2023/12/09 07:06:25;;;;;;;23.85;10.65;;;3.90;99.90;;;;;;4970912;28;20058;-64
2023/12/09 07:08:53;;;;;;;220.82;20.55;;;3.90;99.90;;;;;;4964722;28;20559;-63
2023/12/09 07:11:19;;;;;;;36.80;15.15;;;4.00;99.90;;;;;;4972939;28;20038;-63
2023/12/09 07:13:45;;;;;;;271.08;18.55;;;4.00;99.90;;;;;;4974590;28;20039;-65
2023/12/09 07:16:12;;;;;;;51.67;16.63;;;4.00;99.90;;;;;;4986285;28;20045;-65
2023/12/09 07:18:43;;;;;;;45.28;16.80;;;3.80;99.90;;;;;;4955555;28;20042;-65
2023/12/09 07:21:09;;;;;;;47.20;20.98;;;3.80;99.90;;;;;;4986250;28;20037;-65
2023/12/09 07:23:35;;;;;;;43.42;19.77;;;3.80;99.90;;;;;;4983971;28;20578;-65
2023/12/09 07:26:01;;;;;;;38.30;16.48;;;3.80;99.90;;;;;;4970358;28;20039;-64
2023/12/09 07:28:29;;;;;;;34.28;14.50;;;3.90;99.90;;;;;;4971868;28;20034;-64
2023/12/09 07:30:55;;;;;;;31.00;13.73;;;3.90;99.90;;;;;;4971483;28;20495;-64
2023/12/09 07:33:20;;;;;;;34.25;14.88;;;3.90;99.90;;;;;;4970764;28;20035;-64
2023/12/09 07:35:46;;;;;;;41.25;15.02;;;4.00;99.90;;;;;;4971468;28;20090;-65
2023/12/09 07:38:12;;;;;;;43.15;16.55;;;4.00;99.90;;;;;;4971327;28;20488;-64
2023/12/09 07:40:37;;;;;;;134.02;17.25;;;4.00;99.90;;;;;;4969038;28;20065;-65
2023/12/09 07:43:04;;;;;;;200.80;18.13;;;4.10;99.90;;;;;;4971919;28;20066;-64
2023/12/09 07:45:29;;;;;;;302.80;18.38;;;4.20;99.90;;;;;;4971410;28;20085;-65
2023/12/09 07:47:55;;;;;;;406.13;20.75;;;4.20;99.90;;;;;;4975232;28;20066;-65
2023/12/09 07:50:20;;;;;;;217.20;14.52;;;4.30;99.90;;;;;;4970984;28;20039;-64
2023/12/09 07:52:46;;;;;;;418.70;18.90;;;4.30;99.90;;;;;;4975083;28;20034;-64
2023/12/09 07:55:12;;;;;;;217.90;16.75;;;4.20;99.90;;;;;;4971182;28;20479;-67
2023/12/09 07:57:37;;;;;;;43.22;11.23;;;4.20;99.90;;;;;;4970642;28;20043;-69
2023/12/09 08:00:04;;;;;;;285.73;16.30;;;4.20;99.90;;;;;;4972435;28;20086;-69
2023/12/09 08:02:30;;;;;;;32.25;13.50;;;4.20;99.90;;;;;;4974777;28;20518;-69
2023/12/09 08:04:55;;;;;;;158.45;15.23;;;4.20;99.90;;;;;;4983762;28;20141;-69
2023/12/09 08:07:21;;;;;;;92.28;13.35;;;4.30;99.90;;;;;;4983105;28;20045;-70
2023/12/09 08:09:46;;;;;;;251.35;17.30;;;4.40;99.90;;;;;;4968683;28;20065;-68
2023/12/09 08:12:12;;;;;;;400.80;19.30;;;4.50;99.90;;;;;;4968146;28;20101;-69
2023/12/09 08:14:38;;;;;;;173.25;13.80;;;4.50;99.90;;;;;;4969542;28;20035;-69
2023/12/09 08:17:04;;;;;;;240.80;16.83;;;4.60;99.90;;;;;;4971380;28;20030;-68
2023/12/09 08:19:29;;;;;;;33.85;12.32;;;4.60;99.90;;;;;;4969802;28;20436;-69
2023/12/09 08:21:55;;;;;;;50.38;13.77;;;4.60;99.90;;;;;;4978299;28;20035;-69
2023/12/09 08:24:21;;;;;;;67.15;14.98;;;4.60;99.90;;;;;;4975667;28;20054;-71
2023/12/09 08:26:47;;;;;;;41.38;14.43;;;4.60;99.90;;;;;;4983949;28;20058;-69
2023/12/09 08:29:14;;;;;;;30.58;13.45;;;4.70;99.90;;;;;;4966614;28;20391;-69
2023/12/09 08:31:49;;;;;;;26.60;11.73;;;4.70;99.90;;;;;;4983893;28;20081;-69
2023/12/09 08:34:15;;;;;;;24.30;9.88;;;4.70;99.90;;;;;;4982011;28;20073;-69
2023/12/09 08:36:41;;;;;;;25.13;9.60;;;4.80;99.90;;;;;;4978510;28;20644;-69
2023/12/09 08:39:08;;;;;;;27.38;11.57;;;4.80;99.90;;;;;;4970120;28;20035;-68
2023/12/09 08:41:33;;;;;;;40.10;16.45;;;5.00;99.90;;;;;;4969616;28;20114;-69
2023/12/09 08:43:59;;;;;;;23.55;11.07;;;5.00;99.90;;;;;;4970515;28;20110;-69
2023/12/09 08:46:25;;;;;;;22.85;9.15;;;5.00;99.90;;;;;;4969018;28;20027;-68
2023/12/09 08:48:50;;;;;;;52.45;18.27;;;5.00;99.90;;;;;;4969437;28;20097;-69
2023/12/09 08:51:16;;;;;;;73.30;23.88;;;5.00;99.90;;;;;;4968084;28;20039;-68
2023/12/09 08:53:42;;;;;;;28.20;11.13;;;5.00;99.90;;;;;;4969371;28;20026;-68
2023/12/09 08:56:08;;;;;;;31.33;13.05;;;5.00;99.90;;;;;;4981995;28;20073;-69
2023/12/09 08:58:34;;;;;;;15.98;7.40;;;5.00;99.90;;;;;;4989316;28;20154;-69
2023/12/09 09:01:00;;;;;;;16.48;6.70;;;5.00;99.90;;;;;;4985736;28;20026;-69
2023/12/09 09:03:25;;;;;;;15.30;6.82;;;5.00;99.90;;;;;;4971447;28;20084;-69
2023/12/09 09:05:51;;;;;;;12.40;5.70;;;5.10;99.90;;;;;;4971375;28;20038;-68
2023/12/09 09:08:17;;;;;;;15.77;6.32;;;5.10;99.90;;;;;;4970189;28;20070;-68
2023/12/09 09:10:43;;;;;;;20.77;10.35;;;5.10;99.90;;;;;;4969022;28;20876;-69
2023/12/09 09:13:09;;;;;;;28.25;14.45;;;5.20;99.90;;;;;;4969864;28;20038;-69
2023/12/09 09:15:35;;;;;;;18.45;8.20;;;5.40;99.90;;;;;;4968722;28;20038;-69
2023/12/09 09:18:01;;;;;;;14.35;7.88;;;5.40;99.90;;;;;;4969477;28;20038;-69
2023/12/09 09:20:27;;;;;;;12.63;6.00;;;5.60;99.90;;;;;;4969394;28;20468;-69
2023/12/09 09:22:53;;;;;;;11.40;5.90;;;5.60;99.90;;;;;;4969509;28;20049;-68
2023/12/09 09:25:18;;;;;;;17.00;8.07;;;5.60;99.90;;;;;;4970829;28;20030;-69
2023/12/09 09:27:44;;;;;;;14.38;4.97;;;5.70;99.90;;;;;;4970382;28;20882;-67
2023/12/09 09:30:10;;;;;;;10.18;4.78;;;5.60;99.90;;;;;;4952431;28;20041;-69
2023/12/09 09:32:36;;;;;;;18.98;9.57;;;5.70;99.90;;;;;;4968632;28;20066;-68
2023/12/09 09:35:03;;;;;;;14.50;6.07;;;5.70;99.90;;;;;;4977925;28;20453;-69
2023/12/09 09:37:29;;;;;;;13.30;5.32;;;5.70;99.90;;;;;;4974361;28;20030;-68
2023/12/09 09:39:54;;;;;;;9.80;4.70;;;5.60;99.90;;;;;;4969745;28;20365;-68
2023/12/09 09:42:25;;;;;;;11.50;5.43;;;5.60;99.90;;;;;;4968874;28;20043;-68
2023/12/09 09:45:05;;;;;;;;;;;5.60;99.90;;;;;;4969779;28;20035;-69
2023/12/09 09:47:39;;;;;;;11.15;5.63;;;5.50;99.90;;;;;;4968381;28;19920;-68
2023/12/09 09:50:08;;;;;;;9.82;5.13;;;5.50;99.90;;;;;;4969921;28;20031;-68
2023/12/09 09:52:40;;;;;;;11.20;5.10;;;5.50;99.90;;;;;;4971085;28;20030;-68
2023/12/09 09:55:07;;;;;;;10.85;5.43;;;5.40;99.90;;;;;;4975526;28;20035;-68
2023/12/09 09:57:37;;;;;;;14.65;4.78;;;5.40;99.90;;;;;;4967200;28;20043;-69
2023/12/09 10:00:12;;;;;;;14.15;4.85;;;5.40;99.90;;;;;;4968781;28;20058;-69
2023/12/09 10:02:41;;;;;;;19.48;8.65;;;5.40;99.90;;;;;;4970627;28;20069;-69
2023/12/09 10:05:08;;;;;;;15.85;7.40;;;5.50;99.90;;;;;;4969698;28;20035;-69
2023/12/09 10:07:35;;;;;;;12.88;6.95;;;5.60;99.90;;;;;;4969326;28;20041;-69
2023/12/09 10:10:01;;;;;;;14.65;7.10;;;5.60;99.90;;;;;;4973287;28;20082;-67
2023/12/09 10:12:27;;;;;;;13.02;6.57;;;5.60;99.90;;;;;;4970584;28;20062;-70
2023/12/09 10:14:52;;;;;;;11.85;5.40;;;5.60;99.90;;;;;;4969691;28;20070;-68
2023/12/09 10:17:18;;;;;;;14.90;7.30;;;5.70;99.90;;;;;;4969472;28;20070;-68
2023/12/09 10:19:45;;;;;;;13.95;6.57;;;5.60;99.90;;;;;;4968680;28;20570;-68
2023/12/09 10:22:10;;;;;;;14.00;5.95;;;5.70;99.90;;;;;;4969133;28;20388;-68
2023/12/09 10:24:37;;;;;;;11.63;5.45;;;5.80;99.90;;;;;;4968735;28;20050;-68
2023/12/09 10:27:03;;;;;;;13.73;4.97;;;5.80;99.90;;;;;;4965009;28;20463;-69
2023/12/09 10:29:29;;;;;;;20.35;6.43;;;5.80;99.90;;;;;;4949393;29;20046;-71
2023/12/09 10:31:55;;;;;;;23.17;7.35;;;6.00;99.90;;;;;;4950101;29;20038;-69
2023/12/09 10:34:21;;;;;;;10.77;4.88;;;6.10;99.90;;;;;;4950065;29;20400;-69
2023/12/09 10:36:47;;;;;;;15.57;5.13;;;6.10;99.90;;;;;;4948835;29;20086;-70
2023/12/09 10:39:12;;;;;;;17.85;6.45;;;6.20;99.90;;;;;;4938646;29;20035;-69
2023/12/09 10:41:38;;;;;;;13.55;5.90;;;6.30;99.90;;;;;;4949271;29;20039;-69
2023/12/09 10:44:04;;;;;;;12.80;5.82;;;6.50;99.90;;;;;;4949878;29;20110;-69
2023/12/09 10:46:29;;;;;;;11.02;5.22;;;6.50;99.90;;;;;;4950001;28;20031;-70
2023/12/09 10:48:55;;;;;;;11.30;4.15;;;6.50;99.90;;;;;;4949961;29;20058;-69
2023/12/09 10:51:23;;;;;;;14.73;5.43;;;6.50;99.90;;;;;;4949031;29;20043;-67
2023/12/09 10:53:48;;;;;;;18.55;6.90;;;6.60;99.90;;;;;;4947170;28;20027;-69
2023/12/09 10:56:14;;;;;;;15.20;6.47;;;6.60;99.90;;;;;;4952346;28;20062;-69
2023/12/09 10:58:41;;;;;;;10.35;5.40;;;6.60;99.90;;;;;;4951352;29;20118;-69
2023/12/09 11:01:07;;;;;;;13.23;4.57;;;6.70;99.90;;;;;;4952811;28;20030;-69
2023/12/09 11:03:34;;;;;;;5.47;2.40;;;6.70;99.90;;;;;;4950752;28;20027;-69
2023/12/09 11:06:01;;;;;;;7.18;2.55;;;6.60;99.90;;;;;;4935482;29;20046;-68
2023/12/09 11:08:29;;;;;;;7.70;2.72;;;6.60;99.90;;;;;;4935123;29;20094;-69
2023/12/09 11:10:56;;;;;;;5.05;2.28;;;6.70;99.90;;;;;;4950958;29;20087;-68
2023/12/09 11:13:27;;;;;;;5.30;2.53;;;6.60;99.90;;;;;;4952151;28;20038;-68
2023/12/09 11:16:09;;;;;;;7.15;2.22;;;6.70;99.90;;;;;;4951087;29;20099;-68
2023/12/09 11:18:35;;;;;;;6.53;2.90;;;6.70;99.90;;;;;;4946139;28;20102;-68
2023/12/09 11:21:03;;;;;;;5.18;2.97;;;6.70;99.90;;;;;;4951678;28;20035;-68
2023/12/09 11:23:28;;;;;;;8.73;4.30;;;6.80;99.90;;;;;;4934348;29;20468;-70
2023/12/09 11:25:55;;;;;;;7.60;3.70;;;6.90;99.90;;;;;;4958363;28;20070;-68
2023/12/09 11:28:20;;;;;;;11.07;5.28;;;6.90;99.90;;;;;;4972007;28;20038;-68
2023/12/09 11:30:46;;;;;;;28.75;12.32;;;6.90;99.90;;;;;;4969866;28;20062;-69
2023/12/09 11:33:12;;;;;;;24.13;10.27;;;7.00;99.90;;;;;;4971622;28;20480;-69
2023/12/09 11:35:38;;;;;;;15.85;7.38;;;7.00;99.90;;;;;;4971226;28;20543;-69
2023/12/09 11:38:07;;;;;;;12.10;4.97;;;6.90;99.90;;;;;;4972031;28;20537;-68
2023/12/09 11:40:32;;;;;;;9.60;4.57;;;6.90;99.90;;;;;;4970884;28;20026;-70
2023/12/09 11:43:00;;;;;;;15.60;6.75;;;6.80;99.90;;;;;;4981144;28;20464;-68
2023/12/09 11:45:29;;;;;;;18.08;7.90;;;6.90;99.90;;;;;;4952511;29;20067;-69
2023/12/09 11:47:55;;;;;;;21.35;10.68;;;7.00;99.90;;;;;;4963524;28;20396;-68
2023/12/09 11:50:21;;;;;;;10.15;5.30;;;7.20;99.90;;;;;;4977767;28;20043;-69
2023/12/09 11:52:48;;;;;;;10.75;3.53;;;7.60;99.90;;;;;;4970121;28;20452;-69
2023/12/09 11:55:17;;;;;;;7.68;3.33;;;7.90;99.90;;;;;;4968949;28;20058;-69
2023/12/09 11:57:43;;;;;;;8.55;3.05;;;8.10;99.90;;;;;;4981520;28;20045;-69
2023/12/09 12:00:13;;;;;;;6.68;3.15;;;8.20;99.90;;;;;;4982185;28;20038;-69
2023/12/09 12:02:42;;;;;;;7.60;3.30;;;8.20;99.90;;;;;;4965234;28;20038;-69
2023/12/09 12:05:09;;;;;;;4.95;2.17;;;8.10;99.90;;;;;;4970287;28;20285;-69
2023/12/09 12:07:36;;;;;;;5.45;2.33;;;7.90;99.90;;;;;;4973028;28;20034;-69
2023/12/09 12:10:02;;;;;;;3.63;1.60;;;7.60;99.90;;;;;;4982630;28;20042;-68
2023/12/09 12:12:28;;;;;;;4.88;2.03;;;7.50;99.90;;;;;;4984998;28;20050;-69
2023/12/09 12:14:54;;;;;;;4.68;2.17;;;7.30;99.90;;;;;;4967163;28;20026;-68
2023/12/09 12:17:20;;;;;;;4.53;1.90;;;7.20;99.90;;;;;;4970190;28;20031;-68
2023/12/09 12:19:45;;;;;;;5.32;2.15;;;7.20;99.90;;;;;;4952293;28;20534;-68
2023/12/09 12:22:11;;;;;;;6.03;2.40;;;7.20;99.90;;;;;;4968795;28;20383;-69
2023/12/09 12:24:43;;;;;;;6.65;2.10;;;7.10;99.90;;;;;;4968463;28;20460;-69
2023/12/09 12:27:09;;;;;;;7.13;2.63;;;7.00;99.90;;;;;;4965269;28;20114;-68
2023/12/09 12:29:39;;;;;;;4.28;2.10;;;7.00;99.90;;;;;;4957224;28;20039;-70
2023/12/09 12:32:07;;;;;;;6.70;2.45;;;6.90;99.90;;;;;;4951212;29;20035;-68
2023/12/09 12:34:33;;;;;;;4.78;2.28;;;6.90;99.90;;;;;;4954688;28;20361;-71
2023/12/09 12:36:59;;;;;;;7.03;2.63;;;6.90;99.90;;;;;;4951063;29;20046;-69